createdAt,value
2018-08-11T00:00:01.703Z,1011.76
2018-08-11T00:01:01.720Z,1011.76
2018-08-11T00:02:01.723Z,1011.72
2018-08-11T00:03:01.710Z,1011.74
2018-08-11T00:04:01.698Z,1011.73
2018-08-11T00:05:01.719Z,1011.69
2018-08-11T00:06:01.694Z,1011.73
2018-08-11T00:07:01.683Z,1011.63
2018-08-11T00:08:01.679Z,1011.67
2018-08-11T00:09:01.681Z,1011.67
2018-08-11T00:10:01.678Z,1011.67
2018-08-11T00:11:01.670Z,1011.69
2018-08-11T00:12:01.667Z,1011.67
2018-08-11T00:13:01.663Z,1011.64
2018-08-11T00:14:01.654Z,1011.66
2018-08-11T00:15:01.655Z,1011.66
2018-08-11T00:16:01.663Z,1011.68
2018-08-11T00:17:01.637Z,1011.64
2018-08-11T00:18:01.645Z,1011.64
2018-08-11T00:19:01.678Z,1011.66
2018-08-11T00:20:01.658Z,1011.66
2018-08-11T00:21:01.626Z,1011.66
2018-08-11T00:22:01.623Z,1011.69
2018-08-11T00:23:01.627Z,1011.69
2018-08-11T00:24:01.629Z,1011.64
2018-08-11T00:25:01.613Z,1011.64
2018-08-11T00:26:01.613Z,1011.60
2018-08-11T00:27:01.603Z,1011.64
2018-08-11T00:28:01.613Z,1011.62
2018-08-11T00:29:01.611Z,1011.66
2018-08-11T00:30:01.607Z,1011.70
2018-08-11T00:31:01.632Z,1011.68
2018-08-11T00:32:01.594Z,1011.69
2018-08-11T00:33:01.585Z,1011.65
2018-08-11T00:34:01.607Z,1011.75
2018-08-11T00:35:01.582Z,1011.72
2018-08-11T00:36:01.575Z,1011.69
2018-08-11T00:37:01.601Z,1011.69
2018-08-11T00:38:01.591Z,1011.73
2018-08-11T00:39:01.600Z,1011.72
2018-08-11T00:40:01.568Z,1011.74
2018-08-11T00:41:01.561Z,1011.74
2018-08-11T00:42:01.554Z,1011.77
2018-08-11T00:43:01.588Z,1011.71
2018-08-11T00:44:01.546Z,1011.74
2018-08-11T00:45:01.547Z,1011.72
2018-08-11T00:46:01.546Z,1011.78
2018-08-11T00:47:01.569Z,1011.82
2018-08-11T00:48:01.602Z,1011.84
2018-08-11T00:49:01.550Z,1011.89
2018-08-11T00:50:01.549Z,1011.93
2018-08-11T00:51:01.561Z,1011.89
2018-08-11T00:52:01.520Z,1011.86
2018-08-11T00:53:01.525Z,1011.90
2018-08-11T00:54:01.574Z,1011.90
2018-08-11T00:55:01.513Z,1011.88
2018-08-11T00:56:01.506Z,1011.93
2018-08-11T00:57:01.514Z,1011.99
2018-08-11T00:58:01.500Z,1012.04
2018-08-11T00:59:01.497Z,1012.05
2018-08-11T01:00:01.521Z,1012.04
2018-08-11T01:01:01.515Z,1012.07
2018-08-11T01:02:01.486Z,1012.06
2018-08-11T01:03:01.483Z,1012.18
2018-08-11T01:04:01.478Z,1012.21
2018-08-11T01:05:01.474Z,1012.19
2018-08-11T01:06:01.467Z,1012.23
2018-08-11T01:07:01.472Z,1012.14
2018-08-11T01:08:01.463Z,1012.18
2018-08-11T01:09:01.464Z,1012.12
2018-08-11T01:10:01.477Z,1012.15
2018-08-11T01:11:01.545Z,1012.16
2018-08-11T01:12:01.463Z,1012.16
2018-08-11T01:13:01.453Z,1012.20
2018-08-11T01:14:01.445Z,1012.17
2018-08-11T01:15:01.440Z,1012.17
2018-08-11T01:16:01.438Z,1012.23
2018-08-11T01:17:01.468Z,1012.14
2018-08-11T01:18:01.448Z,1012.20
2018-08-11T01:19:01.450Z,1012.29
2018-08-11T01:20:01.439Z,1012.29
2018-08-11T01:21:01.415Z,1012.33
2018-08-11T01:22:01.413Z,1012.37
2018-08-11T01:23:01.453Z,1012.40
2018-08-11T01:24:01.410Z,1012.42
2018-08-11T01:25:01.417Z,1012.32
2018-08-11T01:26:01.408Z,1012.34
2018-08-11T01:27:01.396Z,1012.35
2018-08-11T01:28:01.448Z,1012.33
2018-08-11T01:29:01.390Z,1012.33
2018-08-11T01:30:01.418Z,1012.44
2018-08-11T01:31:01.381Z,1012.37
2018-08-11T01:32:01.380Z,1012.55
2018-08-11T01:33:01.379Z,1012.58
2018-08-11T01:34:01.372Z,1012.63
2018-08-11T01:35:01.377Z,1012.67
2018-08-11T01:36:01.367Z,1012.71
2018-08-11T01:37:01.409Z,1012.78
2018-08-11T01:38:01.382Z,1012.82
2018-08-11T01:39:01.389Z,1012.70
2018-08-11T01:40:01.381Z,1012.80
2018-08-11T01:41:01.342Z,1012.78
2018-08-11T01:42:01.338Z,1012.77
2018-08-11T01:43:01.341Z,1012.77
2018-08-11T01:44:01.394Z,1012.77
2018-08-11T01:45:01.340Z,1012.80
2018-08-11T01:46:01.335Z,1012.79
2018-08-11T01:47:01.331Z,1012.77
2018-08-11T01:48:01.351Z,1012.86
2018-08-11T01:49:01.337Z,1012.91
2018-08-11T01:50:01.335Z,1013.04
2018-08-11T01:51:01.348Z,1013.07
2018-08-11T01:52:01.304Z,1013.07
2018-08-11T01:53:01.304Z,1013.01
2018-08-11T01:54:01.310Z,1013.01
2018-08-11T01:55:01.295Z,1012.98
2018-08-11T01:56:01.287Z,1012.96
2018-08-11T01:57:01.290Z,1012.87
2018-08-11T01:58:01.301Z,1012.88
2018-08-11T01:59:01.301Z,1012.86
2018-08-11T02:00:01.267Z,1012.85
2018-08-11T02:01:01.265Z,1012.77
2018-08-11T02:02:01.282Z,1012.78
2018-08-11T02:03:01.257Z,1012.74
2018-08-11T02:04:01.250Z,1012.69
2018-08-11T02:05:01.974Z,1012.62
2018-08-11T02:06:01.255Z,1012.58
2018-08-11T02:07:01.248Z,1012.59
2018-08-11T02:08:01.260Z,1012.57
2018-08-11T02:09:01.239Z,1012.58
2018-08-11T02:10:01.224Z,1012.60
2018-08-11T02:11:01.228Z,1012.51
2018-08-11T02:12:01.215Z,1012.32
2018-08-11T02:13:01.207Z,1012.27
2018-08-11T02:14:01.204Z,1012.41
2018-08-11T02:15:01.220Z,1012.49
2018-08-11T02:16:01.201Z,1012.46
2018-08-11T02:17:01.192Z,1012.45
2018-08-11T02:18:01.184Z,1012.48
2018-08-11T02:19:01.180Z,1012.50
2018-08-11T02:20:01.187Z,1012.46
2018-08-11T02:21:01.174Z,1012.53
2018-08-11T02:22:01.166Z,1012.53
2018-08-11T02:23:01.155Z,1012.43
2018-08-11T02:24:01.159Z,1012.44
2018-08-11T02:25:01.156Z,1012.47
2018-08-11T02:26:01.143Z,1012.45
2018-08-11T02:27:01.143Z,1012.52
2018-08-11T02:28:01.141Z,1012.64
2018-08-11T02:29:01.127Z,1012.70
2018-08-11T02:30:01.121Z,1012.72
2018-08-11T02:31:01.118Z,1012.76
2018-08-11T02:32:01.121Z,1012.70
2018-08-11T02:33:01.108Z,1012.62
2018-08-11T02:34:01.111Z,1012.67
2018-08-11T02:35:01.096Z,1012.68
2018-08-11T02:36:01.094Z,1012.73
2018-08-11T02:37:01.091Z,1012.72
2018-08-11T02:38:01.084Z,1012.71
2018-08-11T02:39:01.077Z,1012.75
2018-08-11T02:40:01.069Z,1012.75
2018-08-11T02:41:01.066Z,1012.78
2018-08-11T02:42:01.089Z,1012.75
2018-08-11T02:43:01.062Z,1012.73
2018-08-11T02:44:01.080Z,1012.74
2018-08-11T02:45:01.049Z,1012.72
2018-08-11T02:46:01.040Z,1012.65
2018-08-11T02:47:01.033Z,1012.59
2018-08-11T02:48:01.030Z,1012.58
2018-08-11T02:49:01.019Z,1012.58
2018-08-11T02:50:01.014Z,1012.56
2018-08-11T02:51:01.013Z,1012.48
2018-08-11T02:52:01.017Z,1012.50
2018-08-11T02:53:01.050Z,1012.52
2018-08-11T02:54:01.003Z,1012.53
2018-08-11T02:55:00.991Z,1012.55
2018-08-11T02:56:00.986Z,1012.56
2018-08-11T02:57:00.978Z,1012.56
2018-08-11T02:58:00.985Z,1012.60
2018-08-11T02:59:00.971Z,1012.72
2018-08-11T03:00:00.972Z,1012.77
2018-08-11T03:01:00.964Z,1012.76
2018-08-11T03:02:00.956Z,1012.79
2018-08-11T03:03:01.520Z,1012.74
2018-08-11T03:04:00.942Z,1012.77
2018-08-11T03:05:00.952Z,1012.77
2018-08-11T03:06:00.951Z,1012.78
2018-08-11T03:07:00.945Z,1012.77
2018-08-11T03:08:00.926Z,1012.79
2018-08-11T03:09:00.916Z,1012.75
2018-08-11T03:10:00.913Z,1012.78
2018-08-11T03:11:00.905Z,1012.75
2018-08-11T03:12:00.903Z,1012.73
2018-08-11T03:13:00.892Z,1012.76
2018-08-11T03:14:00.935Z,1012.72
2018-08-11T03:15:00.882Z,1012.73
2018-08-11T03:16:00.882Z,1012.75
2018-08-11T03:17:00.889Z,1012.73
2018-08-11T03:18:00.907Z,1012.76
2018-08-11T03:19:00.861Z,1012.79
2018-08-11T03:20:00.860Z,1012.82
2018-08-11T03:21:00.856Z,1012.78
2018-08-11T03:22:00.841Z,1012.83
2018-08-11T03:23:00.836Z,1012.86
2018-08-11T03:24:00.832Z,1012.89
2018-08-11T03:25:00.836Z,1013.00
2018-08-11T03:26:00.820Z,1013.01
2018-08-11T03:27:00.817Z,1013.01
2018-08-11T03:28:00.814Z,1012.98
2018-08-11T03:29:00.804Z,1012.99
2018-08-11T03:30:00.813Z,1013.02
2018-08-11T03:31:00.806Z,1012.99
2018-08-11T03:32:00.785Z,1013.03
2018-08-11T03:33:00.789Z,1013.07
2018-08-11T03:34:00.777Z,1013.06
2018-08-11T03:35:00.778Z,1013.08
2018-08-11T03:36:00.767Z,1013.09
2018-08-11T03:37:00.760Z,1013.12
2018-08-11T03:38:00.756Z,1013.16
2018-08-11T03:39:00.746Z,1013.14
2018-08-11T03:40:00.778Z,1013.15
2018-08-11T03:41:00.760Z,1013.12
2018-08-11T03:42:00.748Z,1013.11
2018-08-11T03:43:00.723Z,1013.13
2018-08-11T03:44:00.727Z,1013.15
2018-08-11T03:45:00.713Z,1013.09
2018-08-11T03:46:00.835Z,1013.17
2018-08-11T03:47:00.701Z,1013.18
2018-08-11T03:48:00.721Z,1013.19
2018-08-11T03:49:00.698Z,1013.16
2018-08-11T03:50:00.691Z,1013.18
2018-08-11T03:51:00.677Z,1013.19
2018-08-11T03:52:00.682Z,1013.17
2018-08-11T03:53:00.665Z,1013.15
2018-08-11T03:54:00.668Z,1013.16
2018-08-11T03:55:00.656Z,1013.16
2018-08-11T03:56:00.652Z,1013.22
2018-08-11T03:57:00.647Z,1013.20
2018-08-11T03:58:00.648Z,1013.23
2018-08-11T03:59:00.632Z,1013.27
2018-08-11T04:00:00.631Z,1013.22
2018-08-11T04:01:00.628Z,1013.23
2018-08-11T04:02:00.624Z,1013.28
2018-08-11T04:03:00.614Z,1013.29
2018-08-11T04:04:00.604Z,1013.27
2018-08-11T04:05:00.603Z,1013.30
2018-08-11T04:06:00.599Z,1013.30
2018-08-11T04:07:00.588Z,1013.25
2018-08-11T04:08:00.589Z,1013.28
2018-08-11T04:09:00.580Z,1013.23
2018-08-11T04:10:00.572Z,1013.32
2018-08-11T04:11:00.566Z,1013.29
2018-08-11T04:12:00.555Z,1013.31
2018-08-11T04:13:00.552Z,1013.31
2018-08-11T04:14:00.550Z,1013.30
2018-08-11T04:15:00.541Z,1013.29
2018-08-11T04:16:00.539Z,1013.31
2018-08-11T04:17:00.536Z,1013.34
2018-08-11T04:18:00.522Z,1013.32
2018-08-11T04:19:00.524Z,1013.36
2018-08-11T04:20:00.509Z,1013.35
2018-08-11T04:21:00.508Z,1013.39
2018-08-11T04:22:00.518Z,1013.37
2018-08-11T04:23:00.516Z,1013.35
2018-08-11T04:24:00.493Z,1013.46
2018-08-11T04:25:00.489Z,1013.41
2018-08-11T04:26:00.480Z,1013.38
2018-08-11T04:27:00.481Z,1013.34
2018-08-11T04:28:00.463Z,1013.33
2018-08-11T04:29:00.456Z,1013.33
2018-08-11T04:30:00.452Z,1013.33
2018-08-11T04:31:00.465Z,1013.36
2018-08-11T04:32:00.446Z,1013.34
2018-08-11T04:33:00.435Z,1013.32
2018-08-11T04:34:00.435Z,1013.29
2018-08-11T04:35:00.427Z,1013.32
2018-08-11T04:36:00.437Z,1013.34
2018-08-11T04:37:00.416Z,1013.30
2018-08-11T04:38:00.419Z,1013.36
2018-08-11T04:39:00.416Z,1013.35
2018-08-11T04:40:00.399Z,1013.32
2018-08-11T04:41:00.400Z,1013.34
2018-08-11T04:42:00.394Z,1013.36
2018-08-11T04:43:00.382Z,1013.34
2018-08-11T04:44:00.376Z,1013.32
2018-08-11T04:45:00.374Z,1013.32
2018-08-11T04:46:00.365Z,1013.35
2018-08-11T04:47:00.360Z,1013.31
2018-08-11T04:48:00.354Z,1013.35
2018-08-11T04:49:00.360Z,1013.40
2018-08-11T04:50:00.342Z,1013.40
2018-08-11T04:51:00.335Z,1013.46
2018-08-11T04:52:00.332Z,1013.43
2018-08-11T04:53:00.328Z,1013.48
2018-08-11T04:54:00.339Z,1013.49
2018-08-11T04:55:00.317Z,1013.52
2018-08-11T04:56:00.318Z,1013.54
2018-08-11T04:57:00.298Z,1013.54
2018-08-11T04:58:00.296Z,1013.53
2018-08-11T04:59:00.292Z,1013.50
2018-08-11T05:00:00.297Z,1013.53
2018-08-11T05:01:00.289Z,1013.55
2018-08-11T05:02:00.271Z,1013.58
2018-08-11T05:03:00.267Z,1013.59
2018-08-11T05:04:00.266Z,1013.63
2018-08-11T05:05:00.253Z,1013.62
2018-08-11T05:06:00.260Z,1013.66
2018-08-11T05:07:00.277Z,1013.66
2018-08-11T05:08:00.247Z,1013.68
2018-08-11T05:09:00.255Z,1013.69
2018-08-11T05:10:00.227Z,1013.76
2018-08-11T05:11:00.224Z,1013.72
2018-08-11T05:12:00.236Z,1013.79
2018-08-11T05:13:00.234Z,1013.80
2018-08-11T05:14:00.208Z,1013.79
2018-08-11T05:15:00.199Z,1013.77
2018-08-11T05:16:00.191Z,1013.83
2018-08-11T05:17:00.187Z,1013.82
2018-08-11T05:18:00.179Z,1013.83
2018-08-11T05:19:00.194Z,1013.84
2018-08-11T05:20:00.213Z,1013.88
2018-08-11T05:21:00.170Z,1013.82
2018-08-11T05:22:00.163Z,1013.82
2018-08-11T05:23:00.152Z,1013.81
2018-08-11T05:24:00.149Z,1013.80
2018-08-11T05:25:00.159Z,1013.83
2018-08-11T05:26:00.140Z,1013.85
2018-08-11T05:27:00.135Z,1013.88
2018-08-11T05:28:00.129Z,1013.88
2018-08-11T05:29:00.121Z,1013.90
2018-08-11T05:30:00.117Z,1013.91
2018-08-11T05:31:00.123Z,1013.90
2018-08-11T05:32:00.109Z,1013.87
2018-08-11T05:33:00.105Z,1013.89
2018-08-11T05:34:00.098Z,1013.86
2018-08-11T05:35:00.088Z,1013.83
2018-08-11T05:36:00.084Z,1013.86
2018-08-11T05:37:00.087Z,1013.89
2018-08-11T05:38:00.080Z,1013.92
2018-08-11T05:39:00.078Z,1013.96
2018-08-11T05:40:00.066Z,1013.91
2018-08-11T05:41:00.060Z,1013.94
2018-08-11T05:42:00.051Z,1013.94
2018-08-11T05:43:00.048Z,1013.98
2018-08-11T05:44:00.042Z,1013.97
2018-08-11T05:45:00.057Z,1013.97
2018-08-11T05:46:00.033Z,1014.07
2018-08-11T05:47:00.030Z,1014.00
2018-08-11T05:48:00.028Z,1014.02
2018-08-11T05:49:00.016Z,1014.01
2018-08-11T05:50:00.017Z,1014.09
2018-08-11T05:51:00.012Z,1014.03
2018-08-11T05:52:00.010Z,1014.06
2018-08-11T05:53:00.024Z,1014.08
2018-08-11T05:53:59.997Z,1014.08
2018-08-11T05:54:59.985Z,1014.07
2018-08-11T05:55:59.987Z,1014.05
2018-08-11T05:56:59.972Z,1014.10
2018-08-11T05:57:59.970Z,1014.08
2018-08-11T05:58:59.971Z,1014.09
2018-08-11T05:59:59.957Z,1014.12
2018-08-11T06:00:59.960Z,1014.16
2018-08-11T06:02:00.025Z,1014.22
2018-08-11T06:02:59.987Z,1014.20
2018-08-11T06:04:00.012Z,1014.21
2018-08-11T06:04:59.968Z,1014.25
2018-08-11T06:05:59.926Z,1014.24
2018-08-11T06:06:59.926Z,1014.23
2018-08-11T06:07:59.936Z,1014.27
2018-08-11T06:08:59.920Z,1014.26
2018-08-11T06:09:59.932Z,1014.31
2018-08-11T06:10:59.983Z,1014.28
2018-08-11T06:11:59.928Z,1014.28
2018-08-11T06:12:59.892Z,1014.33
2018-08-11T06:13:59.900Z,1014.33
2018-08-11T06:14:59.891Z,1014.34
2018-08-11T06:15:59.880Z,1014.32
2018-08-11T06:16:59.917Z,1014.31
2018-08-11T06:17:59.869Z,1014.24
2018-08-11T06:18:59.891Z,1014.26
2018-08-11T06:19:59.895Z,1014.34
2018-08-11T06:20:59.893Z,1014.33
2018-08-11T06:22:00.619Z,1014.30
2018-08-11T06:22:59.858Z,1014.31
2018-08-11T06:23:59.860Z,1014.34
2018-08-11T06:24:59.839Z,1014.32
2018-08-11T06:25:59.851Z,1014.29
2018-08-11T06:26:59.853Z,1014.27
2018-08-11T06:27:59.873Z,1014.31
2018-08-11T06:28:59.821Z,1014.34
2018-08-11T06:29:59.813Z,1014.33
2018-08-11T06:30:59.809Z,1014.36
2018-08-11T06:31:59.839Z,1014.36
2018-08-11T06:32:59.807Z,1014.30
2018-08-11T06:33:59.798Z,1014.35
2018-08-11T06:35:20.807Z,1014.36
2018-08-11T06:36:06.616Z,1014.39
2018-08-11T06:36:59.838Z,1014.41
2018-08-11T06:37:59.791Z,1014.39
2018-08-11T06:38:59.812Z,1014.45
2018-08-11T06:40:00.610Z,1014.43
2018-08-11T06:40:59.965Z,1014.40
2018-08-11T06:42:14.596Z,1014.39
2018-08-11T06:42:59.776Z,1014.36
2018-08-11T06:43:59.766Z,1014.39
2018-08-11T06:44:59.747Z,1014.47
2018-08-11T06:45:59.770Z,1014.46
2018-08-11T06:46:59.800Z,1014.49
2018-08-11T06:47:59.751Z,1014.45
2018-08-11T06:48:59.753Z,1014.48
2018-08-11T06:49:59.734Z,1014.37
2018-08-11T06:50:59.721Z,1014.43
2018-08-11T06:51:59.751Z,1014.43
2018-08-11T06:52:59.712Z,1014.35
2018-08-11T06:55:25.959Z,1014.45
2018-08-11T06:56:22.245Z,1014.46
2018-08-11T06:58:17.054Z,1014.54
2018-08-11T06:59:16.974Z,1014.53
2018-08-11T07:04:41.014Z,1014.57
2018-08-11T07:05:16.204Z,1014.57
2018-08-11T07:10:17.747Z,1014.67
2018-08-11T07:11:15.899Z,1014.66
2018-08-11T07:13:10.319Z,1014.68
2018-08-11T07:14:09.342Z,1014.67
2018-08-11T07:16:44.240Z,1014.72
2018-08-11T07:17:04.029Z,1014.75
2018-08-11T07:19:01.404Z,1014.69
2018-08-11T07:19:56.791Z,1014.76
2018-08-11T07:21:51.335Z,1014.79
2018-08-11T07:22:50.289Z,1014.79
2018-08-11T07:24:44.034Z,1014.78
2018-08-11T07:25:43.999Z,1014.77
2018-08-11T07:27:37.740Z,1014.79
2018-08-11T07:28:37.679Z,1014.80
2018-08-11T07:30:32.429Z,1014.78
2018-08-11T07:31:31.256Z,1014.78
2018-08-11T07:32:31.520Z,1014.76
2018-08-11T07:33:31.245Z,1014.78
2018-08-11T07:34:31.243Z,1014.80
2018-08-11T07:35:31.239Z,1014.87
2018-08-11T07:36:31.346Z,1014.89
2018-08-11T07:37:31.234Z,1014.92
2018-08-11T07:38:31.233Z,1014.89
2018-08-11T07:39:31.239Z,1014.90
2018-08-11T07:40:31.229Z,1014.87
2018-08-11T07:41:31.234Z,1014.86
2018-08-11T07:42:34.129Z,1014.88
2018-08-11T07:43:31.235Z,1014.85
2018-08-11T07:44:31.233Z,1014.86
2018-08-11T07:45:31.233Z,1014.91
2018-08-11T07:46:31.238Z,1014.86
2018-08-11T07:47:31.291Z,1014.89
2018-08-11T07:48:31.268Z,1014.88
2018-08-11T07:49:31.235Z,1014.90
2018-08-11T07:50:31.232Z,1014.91
2018-08-11T07:51:31.249Z,1014.94
2018-08-11T07:52:32.146Z,1014.97
2018-08-11T07:53:31.238Z,1014.91
2018-08-11T07:54:31.304Z,1014.90
2018-08-11T07:55:31.238Z,1014.94
2018-08-11T07:56:31.241Z,1014.94
2018-08-11T07:57:31.292Z,1014.89
2018-08-11T07:58:31.246Z,1014.95
2018-08-11T07:59:31.262Z,1014.96
2018-08-11T08:00:31.244Z,1014.95
2018-08-11T08:01:31.250Z,1014.96
2018-08-11T08:02:31.236Z,1014.99
2018-08-11T08:03:31.241Z,1015.00
2018-08-11T08:04:31.249Z,1014.94
2018-08-11T08:05:31.236Z,1015.02
2018-08-11T08:06:31.241Z,1015.02
2018-08-11T08:07:31.241Z,1014.97
2018-08-11T08:08:31.239Z,1014.95
2018-08-11T08:09:31.248Z,1014.92
2018-08-11T08:10:31.245Z,1014.94
2018-08-11T08:11:31.247Z,1014.95
2018-08-11T08:12:31.245Z,1014.98
2018-08-11T08:13:31.287Z,1014.97
2018-08-11T08:14:31.249Z,1014.97
2018-08-11T08:15:31.250Z,1014.89
2018-08-11T08:16:31.246Z,1014.96
2018-08-11T08:17:31.246Z,1014.99
2018-08-11T08:18:31.252Z,1015.03
2018-08-11T08:19:31.258Z,1015.02
2018-08-11T08:20:31.252Z,1015.01
2018-08-11T08:21:31.254Z,1015.04
2018-08-11T08:22:31.257Z,1015.07
2018-08-11T08:23:31.263Z,1015.04
2018-08-11T08:24:31.258Z,1015.12
2018-08-11T08:25:31.263Z,1015.11
2018-08-11T08:26:31.508Z,1015.04
2018-08-11T08:27:31.261Z,1015.03
2018-08-11T08:28:31.260Z,1015.01
2018-08-11T08:29:31.262Z,1015.01
2018-08-11T08:30:31.264Z,1015.01
2018-08-11T08:31:31.263Z,1015.09
2018-08-11T08:32:31.267Z,1015.09
2018-08-11T08:33:31.270Z,1015.08
2018-08-11T08:34:31.272Z,1015.13
2018-08-11T08:35:31.275Z,1015.05
2018-08-11T08:36:31.266Z,1015.04
2018-08-11T08:37:31.281Z,1015.09
2018-08-11T08:38:31.271Z,1015.08
2018-08-11T08:39:31.277Z,1015.08
2018-08-11T08:40:31.276Z,1015.04
2018-08-11T08:41:31.273Z,1015.03
2018-08-11T08:42:31.272Z,1015.10
2018-08-11T08:43:31.280Z,1015.13
2018-08-11T08:44:31.281Z,1014.99
2018-08-11T08:45:31.330Z,1015.08
2018-08-11T08:46:31.283Z,1015.11
2018-08-11T08:47:31.349Z,1015.00
2018-08-11T08:48:31.277Z,1015.01
2018-08-11T08:49:31.290Z,1015.02
2018-08-11T08:50:31.288Z,1015.09
2018-08-11T08:51:31.303Z,1015.07
2018-08-11T08:52:31.284Z,1015.02
2018-08-11T08:53:31.283Z,1015.02
2018-08-11T08:54:31.283Z,1015.01
2018-08-11T08:55:31.301Z,1015.03
2018-08-11T08:56:31.290Z,1015.03
2018-08-11T08:57:31.295Z,1014.97
2018-08-11T08:58:31.294Z,1014.96
2018-08-11T08:59:31.304Z,1015.04
2018-08-11T09:00:31.287Z,1015.15
2018-08-11T09:01:31.317Z,1015.05
2018-08-11T09:02:31.306Z,1015.07
2018-08-11T09:03:31.296Z,1015.13
2018-08-11T09:04:31.322Z,1015.07
2018-08-11T09:05:31.326Z,1015.18
2018-08-11T09:06:31.316Z,1015.12
2018-08-11T09:07:31.293Z,1015.11
2018-08-11T09:08:31.297Z,1015.09
2018-08-11T09:09:31.300Z,1015.15
2018-08-11T09:10:31.327Z,1015.08
2018-08-11T09:11:31.302Z,1015.05
2018-08-11T09:12:31.316Z,1015.13
2018-08-11T09:13:31.320Z,1015.11
2018-08-11T09:14:31.309Z,1015.10
2018-08-11T09:15:31.312Z,1015.18
2018-08-11T09:16:31.316Z,1015.04
2018-08-11T09:17:31.343Z,1015.06
2018-08-11T09:18:31.311Z,1015.01
2018-08-11T09:19:31.370Z,1015.10
2018-08-11T09:20:31.319Z,1015.07
2018-08-11T09:21:31.319Z,1015.08
2018-08-11T09:22:31.322Z,1015.02
2018-08-11T09:23:31.327Z,1015.01
2018-08-11T09:24:31.329Z,1015.09
2018-08-11T09:25:31.332Z,1015.11
2018-08-11T09:26:31.461Z,1015.03
2018-08-11T09:27:31.335Z,1015.12
2018-08-11T09:28:31.346Z,1014.99
2018-08-11T09:29:31.341Z,1015.10
2018-08-11T09:30:31.343Z,1015.04
2018-08-11T09:31:31.346Z,1015.08
2018-08-11T09:32:31.351Z,1015.10
2018-08-11T09:33:31.354Z,1015.13
2018-08-11T09:34:31.355Z,1015.17
2018-08-11T09:35:31.357Z,1015.25
2018-08-11T09:36:31.363Z,1015.11
2018-08-11T09:37:31.360Z,1015.19
2018-08-11T09:38:31.408Z,1015.14
2018-08-11T09:39:31.369Z,1015.18
2018-08-11T09:40:31.393Z,1015.22
2018-08-11T09:41:31.368Z,1015.19
2018-08-11T09:42:31.381Z,1015.22
2018-08-11T09:43:31.390Z,1015.21
2018-08-11T09:44:31.382Z,1015.14
2018-08-11T09:45:31.383Z,1015.14
2018-08-11T09:46:31.388Z,1015.24
2018-08-11T09:47:31.390Z,1015.17
2018-08-11T09:48:31.388Z,1015.13
2018-08-11T09:49:31.394Z,1015.19
2018-08-11T09:50:31.404Z,1015.29
2018-08-11T09:51:31.429Z,1015.23
2018-08-11T09:52:31.416Z,1015.17
2018-08-11T09:53:31.435Z,1015.13
2018-08-11T09:54:31.424Z,1015.18
2018-08-11T09:55:31.424Z,1015.19
2018-08-11T09:56:31.415Z,1015.19
2018-08-11T09:57:31.417Z,1015.18
2018-08-11T09:58:31.417Z,1015.12
2018-08-11T09:59:31.422Z,1015.21
2018-08-11T10:00:31.418Z,1015.13
2018-08-11T10:01:31.426Z,1015.14
2018-08-11T10:02:31.427Z,1015.11
2018-08-11T10:03:31.428Z,1015.16
2018-08-11T10:04:31.433Z,1015.15
2018-08-11T10:05:31.433Z,1015.13
2018-08-11T10:06:31.438Z,1015.29
2018-08-11T10:07:31.443Z,1015.23
2018-08-11T10:08:31.442Z,1015.22
2018-08-11T10:09:31.458Z,1015.15
2018-08-11T10:10:31.488Z,1015.28
2018-08-11T10:11:31.451Z,1015.20
2018-08-11T10:12:31.451Z,1015.15
2018-08-11T10:13:31.460Z,1015.07
2018-08-11T10:14:31.464Z,1015.24
2018-08-11T10:15:31.473Z,1015.14
2018-08-11T10:16:31.471Z,1015.03
2018-08-11T10:17:31.477Z,1015.18
2018-08-11T10:18:31.505Z,1015.11
2018-08-11T10:19:32.252Z,1015.18
2018-08-11T10:20:31.490Z,1015.15
2018-08-11T10:21:31.503Z,1015.11
2018-08-11T10:22:31.499Z,1015.09
2018-08-11T10:23:31.509Z,1015.15
2018-08-11T10:24:31.504Z,1015.08
2018-08-11T10:25:31.552Z,1015.05
2018-08-11T10:26:31.511Z,1015.13
2018-08-11T10:27:31.519Z,1015.16
2018-08-11T10:28:31.515Z,1015.14
2018-08-11T10:29:31.525Z,1015.15
2018-08-11T10:30:31.527Z,1015.14
2018-08-11T10:31:31.534Z,1015.16
2018-08-11T10:32:31.532Z,1015.15
2018-08-11T10:33:31.545Z,1015.13
2018-08-11T10:34:31.552Z,1015.11
2018-08-11T10:35:31.554Z,1015.11
2018-08-11T10:36:31.558Z,1015.15
2018-08-11T10:37:31.565Z,1015.11
2018-08-11T10:38:31.593Z,1015.09
2018-08-11T10:39:31.569Z,1015.08
2018-08-11T10:40:31.574Z,1015.06
2018-08-11T10:41:31.581Z,1015.07
2018-08-11T10:42:31.584Z,1015.08
2018-08-11T10:43:31.593Z,1015.17
2018-08-11T10:44:31.595Z,1015.14
2018-08-11T10:45:31.597Z,1015.12
2018-08-11T10:46:31.624Z,1015.11
2018-08-11T10:47:31.604Z,1015.12
2018-08-11T10:48:31.612Z,1015.12
2018-08-11T10:49:31.613Z,1015.11
2018-08-11T10:50:31.631Z,1015.11
2018-08-11T10:51:31.620Z,1015.21
2018-08-11T10:52:31.617Z,1015.08
2018-08-11T10:53:31.626Z,1015.06
2018-08-11T10:54:31.625Z,1015.14
2018-08-11T10:55:31.633Z,1015.13
2018-08-11T10:56:31.635Z,1015.09
2018-08-11T10:57:31.660Z,1015.11
2018-08-11T10:58:31.663Z,1015.13
2018-08-11T10:59:31.646Z,1015.14
2018-08-11T11:00:31.643Z,1015.19
2018-08-11T11:01:31.647Z,1015.12
2018-08-11T11:02:31.677Z,1015.28
2018-08-11T11:03:31.652Z,1015.23
2018-08-11T11:04:31.693Z,1015.15
2018-08-11T11:05:31.662Z,1015.15
2018-08-11T11:06:31.659Z,1015.11
2018-08-11T11:07:31.661Z,1015.11
2018-08-11T11:08:31.766Z,1015.12
2018-08-11T11:09:31.666Z,1015.14
2018-08-11T11:10:31.668Z,1015.18
2018-08-11T11:11:31.674Z,1015.15
2018-08-11T11:12:31.670Z,1015.15
2018-08-11T11:13:31.667Z,1015.15
2018-08-11T11:14:31.672Z,1015.17
2018-08-11T11:15:31.674Z,1015.17
2018-08-11T11:16:31.674Z,1015.14
2018-08-11T11:17:32.302Z,1015.20
2018-08-11T11:18:31.679Z,1015.15
2018-08-11T11:19:31.687Z,1015.14
2018-08-11T11:20:31.673Z,1015.16
2018-08-11T11:21:31.692Z,1015.19
2018-08-11T11:22:31.713Z,1015.26
2018-08-11T11:23:31.686Z,1015.15
2018-08-11T11:24:31.676Z,1015.17
2018-08-11T11:25:31.676Z,1015.12
2018-08-11T11:26:31.698Z,1015.19
2018-08-11T11:27:31.698Z,1015.17
2018-08-11T11:28:31.677Z,1015.22
2018-08-11T11:29:31.682Z,1015.15
2018-08-11T11:30:31.689Z,1015.21
2018-08-11T11:31:31.719Z,1015.24
2018-08-11T11:32:31.692Z,1015.21
2018-08-11T11:33:31.691Z,1015.18
2018-08-11T11:34:31.695Z,1015.16
2018-08-11T11:35:31.688Z,1015.19
2018-08-11T11:36:31.682Z,1015.17
2018-08-11T11:37:31.687Z,1015.18
2018-08-11T11:38:31.691Z,1015.22
2018-08-11T11:39:31.687Z,1015.21
2018-08-11T11:40:31.693Z,1015.23
2018-08-11T11:41:31.679Z,1015.21
2018-08-11T11:42:31.706Z,1015.31
2018-08-11T11:43:31.686Z,1015.29
2018-08-11T11:44:31.689Z,1015.28
2018-08-11T11:45:31.696Z,1015.28
2018-08-11T11:46:31.681Z,1015.34
2018-08-11T11:47:31.718Z,1015.22
2018-08-11T11:48:31.694Z,1015.27
2018-08-11T11:49:31.691Z,1015.09
2018-08-11T11:50:31.701Z,1015.30
2018-08-11T11:51:31.703Z,1015.33
2018-08-11T11:52:31.688Z,1015.35
2018-08-11T11:53:31.687Z,1015.30
2018-08-11T11:54:31.731Z,1015.30
2018-08-11T11:55:31.691Z,1015.26
2018-08-11T11:56:31.730Z,1015.31
2018-08-11T11:57:31.709Z,1015.32
2018-08-11T11:58:31.697Z,1015.36
2018-08-11T11:59:31.701Z,1015.24
2018-08-11T12:00:31.702Z,1015.21
2018-08-11T12:01:31.706Z,1015.24
2018-08-11T12:02:31.711Z,1015.26
2018-08-11T12:03:31.721Z,1015.25
2018-08-11T12:04:31.714Z,1015.30
2018-08-11T12:05:32.319Z,1015.34
2018-08-11T12:06:31.731Z,1015.28
2018-08-11T12:07:31.722Z,1015.18
2018-08-11T12:08:31.731Z,1015.15
2018-08-11T12:09:31.741Z,1015.22
2018-08-11T12:10:31.732Z,1015.17
2018-08-11T12:11:31.737Z,1015.15
2018-08-11T12:12:31.763Z,1015.21
2018-08-11T12:13:31.739Z,1015.23
2018-08-11T12:14:31.764Z,1015.21
2018-08-11T12:15:31.759Z,1015.19
2018-08-11T12:16:31.767Z,1015.20
2018-08-11T12:17:31.766Z,1015.11
2018-08-11T12:18:31.759Z,1015.19
2018-08-11T12:19:31.802Z,1015.23
2018-08-11T12:20:31.765Z,1015.15
2018-08-11T12:21:31.769Z,1015.20